createdAt,value
2022-10-12T00:19:03.279Z,26.87
2022-10-12T01:12:50.433Z,28.81
2022-10-12T01:27:26.594Z,28.00
2022-10-12T01:30:36.795Z,29.12
2022-10-12T01:32:07.267Z,31.25
2022-10-12T01:35:00.839Z,30.50
2022-10-12T01:36:43.477Z,29.25
2022-10-12T01:37:44.902Z,27.75
2022-10-12T01:39:01.975Z,26.44
2022-10-12T02:02:55.237Z,31.12
2022-10-12T02:04:20.068Z,28.19
2022-10-12T02:05:31.589Z,30.20
2022-10-12T02:07:52.099Z,29.25
2022-10-12T02:08:19.483Z,32.40
2022-10-12T02:08:59.019Z,28.00
2022-10-12T02:10:07.643Z,27.00
2022-10-12T02:11:17.136Z,28.69
2022-10-12T02:12:24.047Z,27.19
2022-10-12T02:13:37.957Z,29.63
2022-10-12T03:04:08.672Z,24.63
2022-10-12T03:05:10.957Z,24.50
2022-10-12T03:06:19.262Z,18.81
2022-10-12T03:23:51.816Z,22.19
2022-10-12T03:24:55.724Z,28.69
2022-10-12T03:25:59.737Z,23.25
2022-10-12T03:27:06.570Z,25.25
2022-10-12T03:28:10.676Z,21.56
2022-10-12T03:29:14.715Z,26.25
2022-10-12T03:30:18.796Z,23.07
2022-10-12T03:31:22.902Z,24.37
2022-10-12T03:32:26.936Z,22.06
2022-10-12T03:33:30.906Z,25.00
2022-10-12T03:34:37.970Z,23.31
2022-10-12T03:35:46.894Z,27.87
2022-10-12T03:36:52.263Z,28.25
2022-10-12T03:37:56.157Z,25.44
2022-10-12T03:39:04.579Z,24.87
2022-10-12T03:40:10.961Z,25.75
2022-10-12T03:41:19.102Z,24.87
2022-10-12T03:42:28.104Z,22.56
2022-10-12T03:43:31.691Z,24.81
2022-10-12T03:44:37.263Z,26.62
2022-10-12T03:45:49.055Z,23.75
2022-10-12T03:48:03.721Z,27.37
2022-10-12T04:13:22.778Z,27.87
2022-10-12T05:10:48.282Z,24.69
2022-10-12T05:13:15.107Z,25.12
2022-10-12T05:14:20.541Z,26.94
2022-10-12T05:15:27.593Z,19.44
2022-10-12T05:16:31.690Z,26.94
2022-10-12T05:17:47.086Z,25.69
2022-10-12T05:36:42.742Z,21.19
2022-10-12T07:41:19.525Z,25.12
2022-10-12T07:42:15.529Z,23.38
2022-10-12T07:43:21.346Z,24.25
2022-10-12T07:44:25.249Z,26.94
2022-10-12T07:45:30.877Z,22.87
2022-10-12T07:46:35.118Z,24.73
2022-10-12T07:47:40.866Z,24.75
2022-10-12T08:46:02.028Z,18.87
2022-10-12T08:47:32.456Z,17.56
2022-10-12T09:22:54.950Z,11.75
2022-10-12T09:45:33.313Z,11.06
2022-10-12T09:56:13.226Z,9.25
2022-10-12T09:56:44.392Z,8.56
2022-10-12T09:58:04.080Z,8.94
2022-10-12T10:01:00.151Z,7.87
2022-10-12T10:02:19.117Z,9.19
2022-10-12T10:03:30.790Z,9.75
2022-10-12T10:04:33.205Z,8.50
2022-10-12T10:05:39.420Z,7.87
2022-10-12T10:06:51.504Z,8.19
2022-10-12T10:08:23.535Z,6.81
2022-10-12T10:09:33.121Z,8.44
2022-10-12T10:10:41.567Z,7.31
2022-10-12T10:11:45.584Z,6.25
2022-10-12T10:12:54.690Z,7.25
2022-10-12T10:14:01.286Z,7.50
2022-10-12T10:15:09.886Z,7.19
2022-10-12T10:17:55.605Z,9.06
2022-10-12T10:19:03.697Z,5.94
2022-10-12T10:20:10.277Z,3.75
2022-10-12T10:24:28.057Z,5.19
2022-10-12T10:25:33.536Z,6.12
2022-10-12T10:26:55.417Z,4.31
2022-10-12T10:28:14.386Z,4.56
2022-10-12T10:29:24.319Z,4.75
2022-10-12T10:30:35.203Z,3.31
2022-10-12T10:31:33.992Z,4.56
2022-10-12T10:32:37.940Z,5.50
2022-10-12T10:33:44.244Z,3.94
2022-10-12T10:34:48.142Z,3.31
2022-10-12T10:36:25.731Z,4.37
2022-10-12T10:37:33.420Z,3.94
2022-10-12T10:38:55.149Z,7.44
2022-10-12T10:40:00.076Z,2.75
2022-10-12T10:41:06.969Z,4.56
2022-10-12T10:42:24.811Z,3.87
2022-10-12T10:43:40.791Z,2.44
2022-10-12T10:46:12.217Z,4.19
2022-10-12T10:48:50.535Z,3.56
2022-10-12T10:49:03.003Z,3.44
2022-10-12T10:50:02.553Z,4.94
2022-10-12T10:51:10.083Z,3.87
2022-10-12T10:52:33.712Z,2.94
2022-10-12T10:53:47.661Z,3.50
2022-10-12T10:55:20.281Z,3.44
2022-10-12T10:56:26.994Z,4.50
2022-10-12T10:57:31.544Z,1.87
2022-10-12T10:58:47.160Z,6.44
2022-10-12T11:00:26.381Z,4.25
2022-10-12T11:01:34.718Z,3.75
2022-10-12T12:36:37.586Z,5.94
2022-10-12T12:41:36.978Z,3.75
2022-10-12T13:29:23.543Z,5.50
2022-10-12T13:30:43.117Z,4.56
2022-10-12T13:31:49.209Z,5.87
2022-10-12T13:33:10.651Z,5.87
2022-10-12T13:33:13.244Z,5.19
2022-10-12T13:34:25.904Z,5.75
2022-10-12T13:35:49.578Z,7.00
2022-10-12T13:37:04.878Z,4.25
2022-10-12T13:38:34.204Z,4.69
2022-10-12T13:39:45.335Z,3.44
2022-10-12T13:41:00.151Z,4.87
2022-10-12T13:42:08.683Z,3.81
2022-10-12T13:43:29.039Z,4.56
2022-10-12T13:46:00.428Z,2.87
2022-10-12T14:31:57.585Z,6.31
2022-10-12T14:33:21.140Z,7.12
2022-10-12T14:34:36.532Z,4.44
2022-10-12T14:35:40.813Z,2.75
2022-10-12T14:37:01.190Z,5.50
2022-10-12T15:31:51.158Z,4.00
2022-10-12T15:33:09.225Z,9.88
2022-10-12T15:34:08.257Z,7.56
2022-10-12T15:35:24.240Z,9.00
2022-10-12T15:36:36.065Z,21.44
2022-10-12T17:13:28.584Z,41.47
2022-10-12T17:40:13.674Z,37.50
2022-10-12T17:44:43.743Z,35.31
2022-10-12T17:45:49.188Z,41.69
2022-10-12T17:46:54.893Z,42.73
2022-10-12T17:47:58.746Z,46.67
2022-10-12T17:49:02.616Z,40.67
2022-10-12T17:50:07.038Z,41.00
2022-10-12T17:51:11.945Z,38.50
2022-10-12T17:52:17.412Z,42.47
2022-10-12T17:53:21.627Z,42.60
2022-10-12T17:54:26.434Z,42.06
2022-10-12T17:55:47.623Z,45.75
2022-10-12T17:56:39.056Z,40.63
2022-10-12T17:57:43.018Z,40.00
2022-10-12T17:58:46.978Z,39.31
2022-10-12T17:59:50.918Z,41.00
2022-10-12T18:00:54.984Z,38.53
2022-10-12T18:02:02.652Z,40.60
2022-10-12T18:03:09.278Z,36.56
2022-10-12T18:04:13.923Z,35.31
2022-10-12T18:05:17.986Z,41.81
2022-10-12T18:06:24.150Z,40.73
2022-10-12T18:07:28.173Z,40.44
2022-10-12T18:08:33.613Z,39.87
2022-10-12T18:09:39.054Z,38.60
2022-10-12T18:10:42.982Z,41.07
2022-10-12T18:11:53.439Z,38.33
2022-10-12T18:12:53.209Z,41.47
2022-10-12T18:13:58.327Z,41.53
2022-10-12T18:15:02.547Z,41.13
2022-10-12T18:16:11.438Z,41.93
2022-10-12T18:17:17.017Z,34.69
2022-10-12T18:18:24.054Z,38.07
2022-10-12T18:19:31.240Z,27.80
2022-10-12T18:20:35.478Z,30.12
2022-10-12T18:21:45.479Z,32.94
2022-10-12T18:22:49.246Z,33.25
2022-10-12T18:23:55.283Z,28.12
2022-10-12T18:25:03.556Z,42.13
2022-10-12T18:26:17.827Z,29.12
2022-10-12T18:27:20.224Z,32.13
2022-10-12T18:28:24.235Z,33.69
2022-10-12T18:29:29.939Z,35.25
2022-10-12T18:33:27.303Z,35.25
2022-10-12T19:12:00.722Z,44.44
2022-10-12T19:15:11.784Z,44.00
2022-10-12T19:44:29.800Z,31.56
2022-10-12T19:44:32.995Z,29.53
2022-10-12T19:45:40.804Z,30.69
2022-10-12T19:46:46.868Z,28.31
2022-10-12T19:47:52.496Z,30.33
2022-10-12T19:49:01.090Z,27.62
2022-10-12T19:50:08.880Z,29.81
2022-10-12T19:51:55.417Z,29.06
2022-10-12T19:55:28.167Z,27.00
2022-10-12T19:56:32.281Z,32.25
2022-10-12T19:57:49.239Z,31.75
2022-10-12T19:58:44.861Z,29.37
2022-10-12T19:59:51.414Z,29.56
2022-10-12T20:01:03.576Z,32.63
2022-10-12T20:02:11.230Z,32.50
2022-10-12T20:03:18.296Z,29.67
2022-10-12T20:05:47.773Z,29.87
2022-10-12T20:06:51.827Z,27.25
2022-10-12T20:08:00.794Z,22.75
2022-10-12T20:09:08.086Z,28.33
2022-10-12T20:10:12.112Z,30.00
2022-10-12T20:11:20.450Z,28.38
2022-10-12T20:12:27.802Z,22.62
2022-10-12T20:13:32.404Z,25.06
2022-10-12T20:14:39.093Z,24.81
2022-10-12T20:15:43.091Z,29.63
2022-10-12T20:16:48.416Z,30.87
2022-10-12T20:17:54.004Z,15.94
2022-10-12T20:18:58.086Z,27.31
2022-10-12T20:20:02.468Z,28.38
2022-10-12T20:21:09.005Z,27.87
2022-10-12T20:22:12.923Z,29.63
2022-10-12T20:24:37.078Z,28.50
2022-10-12T20:24:39.972Z,29.94
2022-10-12T20:25:45.619Z,29.27
2022-10-12T20:27:04.430Z,31.44
2022-10-12T20:27:55.527Z,27.13
2022-10-12T20:29:01.652Z,25.50
2022-10-12T20:30:07.845Z,27.40
2022-10-12T20:31:13.648Z,26.37
2022-10-12T20:32:19.395Z,27.13
2022-10-12T20:33:49.606Z,28.25
2022-10-12T20:34:52.084Z,27.13
2022-10-12T20:36:01.623Z,75.20
2022-10-12T20:37:57.384Z,30.44
2022-10-12T20:38:25.654Z,28.12
2022-10-12T20:39:28.962Z,27.93
2022-10-12T20:40:33.107Z,23.25
2022-10-12T20:41:45.864Z,23.62
2022-10-12T20:42:49.011Z,27.19
2022-10-12T20:43:58.894Z,21.06
2022-10-12T20:45:03.044Z,25.06
2022-10-12T20:46:09.940Z,25.12
2022-10-12T20:47:14.095Z,23.53
2022-10-12T20:49:41.395Z,19.56
2022-10-12T20:50:51.429Z,26.75
2022-10-12T20:51:51.160Z,26.62
2022-10-12T20:52:56.713Z,25.75
2022-10-12T20:54:05.990Z,27.81
2022-10-12T20:55:14.059Z,23.94
2022-10-12T20:56:53.838Z,25.50
2022-10-12T21:08:44.508Z,18.50
2022-10-12T21:09:48.503Z,21.25
2022-10-12T21:10:52.776Z,14.50
2022-10-12T21:11:58.526Z,15.13
2022-10-12T21:13:02.688Z,16.06
2022-10-12T21:14:23.507Z,16.62
2022-10-12T21:15:26.911Z,16.69
2022-10-12T21:19:17.530Z,16.81
2022-10-12T21:20:21.602Z,16.31
2022-10-12T21:21:29.209Z,15.63
2022-10-12T21:22:37.095Z,16.06
2022-10-12T21:23:43.166Z,16.00
2022-10-12T21:24:50.422Z,16.87
2022-10-12T21:26:01.316Z,18.31
2022-10-12T21:27:17.322Z,15.69
2022-10-12T21:28:15.359Z,17.94
2022-10-12T21:29:31.174Z,18.75
2022-10-12T21:30:27.433Z,18.62
2022-10-12T21:31:32.803Z,18.87
2022-10-12T21:32:37.346Z,19.12
2022-10-12T21:33:46.867Z,14.69
2022-10-12T21:34:53.869Z,19.06
2022-10-12T21:36:15.476Z,11.75
2022-10-12T21:37:16.389Z,18.56
2022-10-12T21:38:20.429Z,15.60
2022-10-12T21:39:24.435Z,18.94
2022-10-12T21:40:30.058Z,16.44
2022-10-12T21:41:37.819Z,17.81
2022-10-12T21:42:43.472Z,18.44
2022-10-12T21:43:52.798Z,22.69
2022-10-12T21:45:22.703Z,17.94
2022-10-12T21:46:16.563Z,19.31
2022-10-12T21:47:20.457Z,18.37
2022-10-12T21:48:31.008Z,18.19
2022-10-12T21:50:21.677Z,15.38
2022-10-12T21:50:47.287Z,15.19
2022-10-12T21:51:56.078Z,11.88
2022-10-12T21:53:01.713Z,15.06
2022-10-12T21:54:06.829Z,21.19
2022-10-12T21:55:15.004Z,17.50
2022-10-12T21:56:21.010Z,19.20
2022-10-12T21:57:27.826Z,16.06
2022-10-12T21:58:33.433Z,18.56
2022-10-12T21:59:41.702Z,18.00
2022-10-12T22:00:45.181Z,17.62
2022-10-12T22:01:52.649Z,16.62
2022-10-12T22:02:58.241Z,17.87
2022-10-12T22:04:06.810Z,21.69
2022-10-12T22:05:10.872Z,20.37
2022-10-12T22:06:18.728Z,21.31
2022-10-12T22:07:23.907Z,18.94
2022-10-12T22:08:29.917Z,9.38
2022-10-12T22:09:37.131Z,18.06
2022-10-12T22:10:41.323Z,20.25
2022-10-12T22:11:48.171Z,18.81
2022-10-12T22:12:53.770Z,19.94
2022-10-12T22:26:11.339Z,20.06
2022-10-12T22:27:15.392Z,19.75
2022-10-12T22:28:21.804Z,22.87
2022-10-12T22:29:27.519Z,19.69
2022-10-12T22:30:35.403Z,16.06
2022-10-12T23:19:18.370Z,11.88
2022-10-12T23:35:06.299Z,13.38
2022-10-12T23:36:13.722Z,9.81
2022-10-12T23:37:19.246Z,12.81
2022-10-12T23:38:23.508Z,16.06
2022-10-12T23:39:30.904Z,13.81
2022-10-12T23:40:42.836Z,14.20
2022-10-12T23:41:46.921Z,11.69
2022-10-12T23:42:50.897Z,14.06
2022-10-12T23:43:54.994Z,15.69
2022-10-12T23:44:59.020Z,13.88
2022-10-12T23:46:06.909Z,14.31
2022-10-12T23:48:33.153Z,13.13
2022-10-12T23:49:40.870Z,14.50
2022-10-12T23:51:51.332Z,14.56
2022-10-12T23:53:58.119Z,13.81
2022-10-12T23:55:03.311Z,15.38
2022-10-12T23:56:09.355Z,16.00
2022-10-12T23:57:41.631Z,17.31
2022-10-12T23:58:26.662Z,14.00
2022-10-12T23:59:33.504Z,17.31
